createdAt,value
2022-12-26T00:01:07.934Z,15.88
2022-12-26T00:03:35.839Z,17.58
2022-12-26T00:06:05.348Z,16.23
2022-12-26T00:08:32.899Z,18.85
2022-12-26T00:11:00.477Z,16.92
2022-12-26T00:13:39.914Z,19.77
2022-12-26T00:16:10.735Z,20.00
2022-12-26T00:18:38.562Z,18.08
2022-12-26T00:21:07.905Z,14.45
2022-12-26T00:23:35.952Z,20.90
2022-12-26T00:26:04.567Z,16.35
2022-12-26T00:28:32.191Z,14.63
2022-12-26T00:30:59.723Z,15.55
2022-12-26T00:33:28.083Z,20.45
2022-12-26T00:35:55.547Z,15.02
2022-12-26T00:38:24.995Z,13.40
2022-12-26T00:40:54.430Z,12.23
2022-12-26T00:43:21.938Z,12.80
2022-12-26T00:45:49.730Z,12.85
2022-12-26T00:48:17.250Z,13.05
2022-12-26T00:50:44.943Z,14.25
2022-12-26T00:53:12.510Z,11.68
2022-12-26T00:55:41.485Z,12.27
2022-12-26T00:58:09.179Z,14.63
2022-12-26T01:00:36.800Z,11.40
2022-12-26T01:03:04.607Z,13.25
2022-12-26T01:05:32.161Z,14.20
2022-12-26T01:08:20.209Z,16.08
2022-12-26T01:10:48.617Z,17.67
2022-12-26T01:13:16.602Z,12.60
2022-12-26T01:15:48.510Z,15.25
2022-12-26T01:18:15.977Z,12.82
2022-12-26T01:20:43.493Z,12.98
2022-12-26T01:23:10.963Z,14.23
2022-12-26T01:26:18.729Z,16.10
2022-12-26T01:28:28.472Z,12.52
2022-12-26T01:30:55.975Z,12.65
2022-12-26T01:33:23.471Z,13.93
2022-12-26T01:35:51.757Z,21.02
2022-12-26T01:38:19.377Z,12.43
2022-12-26T01:40:46.969Z,12.55
2022-12-26T01:43:14.990Z,13.35
2022-12-26T01:45:44.265Z,13.38
2022-12-26T01:48:16.138Z,13.40
2022-12-26T01:50:46.506Z,14.65
2022-12-26T01:53:15.814Z,11.80
2022-12-26T01:55:47.111Z,11.60
2022-12-26T01:58:18.428Z,13.23
2022-12-26T02:00:47.734Z,13.23
2022-12-26T02:03:32.809Z,15.63
2022-12-26T02:06:01.885Z,12.88
2022-12-26T02:08:30.247Z,10.70
2022-12-26T02:10:59.953Z,14.00
2022-12-26T02:13:28.490Z,12.18
2022-12-26T02:15:57.614Z,18.30
2022-12-26T02:18:25.159Z,10.40
2022-12-26T02:20:59.546Z,12.38
2022-12-26T02:23:44.667Z,9.88
2022-12-26T02:26:29.892Z,12.00
2022-12-26T02:29:15.189Z,13.82
2022-12-26T02:31:47.526Z,10.63
2022-12-26T02:34:16.752Z,12.18
2022-12-26T02:36:51.890Z,17.90
2022-12-26T02:39:43.717Z,12.68
2022-12-26T02:42:17.833Z,12.68
2022-12-26T02:45:10.783Z,10.32
2022-12-26T02:47:44.788Z,10.75
2022-12-26T02:50:33.520Z,10.55
2022-12-26T02:53:25.742Z,11.35
2022-12-26T02:56:13.076Z,13.57
2022-12-26T02:59:01.378Z,11.88
2022-12-26T03:01:48.924Z,10.90
2022-12-26T03:04:37.494Z,8.57
2022-12-26T03:07:25.427Z,11.23
2022-12-26T03:10:10.864Z,15.40
2022-12-26T03:12:58.109Z,13.48
2022-12-26T03:15:27.498Z,11.88
2022-12-26T03:17:56.576Z,8.40
2022-12-26T03:20:27.260Z,17.38
2022-12-26T03:22:55.759Z,11.60
2022-12-26T03:25:43.532Z,10.20
2022-12-26T03:28:13.851Z,11.65
2022-12-26T03:30:49.812Z,14.20
2022-12-26T03:33:35.426Z,13.40
2022-12-26T03:36:04.563Z,11.27
2022-12-26T03:38:36.019Z,8.65
2022-12-26T03:41:25.099Z,7.95
2022-12-26T03:44:16.572Z,10.10
2022-12-26T03:47:07.496Z,8.70
2022-12-26T03:49:54.403Z,8.57
2022-12-26T03:52:42.540Z,10.75
2022-12-26T03:55:30.192Z,10.65
2022-12-26T03:58:20.420Z,12.20
2022-12-26T04:01:09.783Z,7.70
2022-12-26T04:03:56.454Z,8.60
2022-12-26T04:06:44.903Z,9.50
2022-12-26T04:09:33.483Z,11.98
2022-12-26T04:12:15.313Z,11.02
2022-12-26T04:15:02.679Z,9.23
2022-12-26T04:17:52.165Z,13.30
2022-12-26T04:20:21.585Z,10.10
2022-12-26T04:23:08.977Z,7.50
2022-12-26T04:25:57.646Z,10.18
2022-12-26T04:28:42.545Z,10.70
2022-12-26T04:31:30.094Z,10.40
2022-12-26T04:34:18.970Z,11.18
2022-12-26T04:37:07.105Z,8.38
2022-12-26T04:39:52.969Z,8.70
2022-12-26T04:42:40.572Z,8.52
2022-12-26T04:45:08.853Z,10.20
2022-12-26T04:47:36.348Z,9.60
2022-12-26T04:50:15.469Z,11.98
2022-12-26T04:53:01.576Z,9.82
2022-12-26T04:55:29.916Z,13.65
2022-12-26T04:57:58.866Z,11.40
2022-12-26T05:00:28.245Z,11.27
2022-12-26T05:03:18.715Z,11.70
2022-12-26T05:06:05.401Z,10.15
2022-12-26T05:08:52.220Z,9.02
2022-12-26T05:11:19.772Z,12.82
2022-12-26T05:13:48.631Z,11.10
2022-12-26T05:16:33.968Z,13.48
2022-12-26T05:19:20.713Z,11.27
2022-12-26T05:22:05.880Z,11.90
2022-12-26T05:24:52.676Z,9.95
2022-12-26T05:27:37.751Z,9.73
2022-12-26T05:30:07.776Z,7.47
2022-12-26T05:32:52.666Z,9.57
2022-12-26T05:35:20.600Z,11.43
2022-12-26T05:37:48.254Z,9.18
2022-12-26T05:40:15.775Z,7.43
2022-12-26T05:42:43.523Z,6.50
2022-12-26T05:45:12.778Z,9.02
2022-12-26T05:47:48.275Z,6.95
2022-12-26T05:50:19.114Z,5.47
2022-12-26T05:52:46.927Z,8.85
2022-12-26T05:55:14.410Z,10.95
2022-12-26T05:57:42.010Z,7.43
2022-12-26T06:00:12.333Z,7.25
2022-12-26T06:02:43.660Z,8.27
2022-12-26T06:05:13.011Z,11.30
2022-12-26T06:07:44.019Z,7.03
2022-12-26T06:10:11.831Z,10.38
2022-12-26T06:12:39.442Z,7.18
2022-12-26T06:15:07.973Z,8.05
2022-12-26T06:17:37.740Z,10.02
2022-12-26T06:20:07.406Z,7.75
2022-12-26T06:22:34.900Z,7.45
2022-12-26T06:25:04.898Z,7.97
2022-12-26T06:27:38.072Z,5.90
2022-12-26T06:30:18.967Z,6.07
2022-12-26T06:33:01.269Z,20.67
2022-12-26T06:35:30.182Z,7.32
2022-12-26T06:37:57.990Z,6.43
2022-12-26T06:40:34.684Z,4.78
2022-12-26T06:43:02.156Z,6.38
2022-12-26T06:45:29.707Z,7.15
2022-12-26T06:47:59.240Z,8.75
2022-12-26T06:50:27.076Z,5.55
2022-12-26T06:52:55.947Z,6.20
2022-12-26T06:55:23.565Z,7.47
2022-12-26T06:57:52.753Z,8.10
2022-12-26T07:00:20.287Z,9.82
2022-12-26T07:02:52.584Z,5.32
2022-12-26T07:05:20.291Z,8.27
2022-12-26T07:07:56.427Z,7.03
2022-12-26T07:10:25.457Z,8.48
2022-12-26T07:12:53.009Z,9.20
2022-12-26T07:15:20.541Z,10.35
2022-12-26T07:17:48.064Z,7.85
2022-12-26T07:20:15.721Z,17.15
2022-12-26T07:22:44.110Z,11.43
2022-12-26T07:25:11.716Z,7.10
2022-12-26T07:27:40.772Z,8.07
2022-12-26T07:30:09.067Z,8.15
2022-12-26T07:32:36.704Z,9.50
2022-12-26T07:35:06.629Z,11.15
2022-12-26T07:37:34.188Z,9.23
2022-12-26T07:40:04.061Z,16.33
2022-12-26T07:42:31.793Z,9.50
2022-12-26T07:45:00.687Z,13.43
2022-12-26T07:47:28.536Z,9.80
2022-12-26T07:49:56.044Z,12.00
2022-12-26T07:52:23.930Z,13.95
2022-12-26T07:54:51.409Z,10.27
2022-12-26T07:57:49.446Z,11.80
2022-12-26T08:00:08.786Z,11.95
2022-12-26T08:02:36.552Z,10.73
2022-12-26T08:05:04.273Z,9.05
2022-12-26T08:07:32.125Z,11.02
2022-12-26T08:09:59.601Z,20.58
2022-12-26T08:12:29.518Z,15.00
2022-12-26T08:14:56.979Z,17.05
2022-12-26T08:17:25.891Z,13.38
2022-12-26T08:19:53.436Z,18.02
2022-12-26T08:22:20.969Z,14.05
2022-12-26T08:24:48.534Z,15.45
2022-12-26T08:27:22.005Z,14.82
2022-12-26T08:29:49.908Z,14.32
2022-12-26T08:32:17.498Z,14.88
2022-12-26T08:34:46.410Z,16.48
2022-12-26T08:37:13.983Z,21.77
2022-12-26T08:39:41.560Z,14.07
2022-12-26T08:42:09.047Z,18.95
2022-12-26T08:44:36.651Z,19.88
2022-12-26T08:47:04.191Z,22.88
2022-12-26T08:49:31.720Z,22.10
2022-12-26T08:52:00.635Z,18.77
2022-12-26T08:54:28.377Z,21.50
2022-12-26T08:56:55.993Z,30.20
2022-12-26T08:59:24.215Z,26.02
2022-12-26T09:01:51.849Z,22.92
2022-12-26T09:04:19.527Z,26.05
2022-12-26T09:06:49.829Z,22.48
2022-12-26T09:09:18.720Z,26.90
2022-12-26T09:11:46.467Z,25.27
2022-12-26T09:14:14.031Z,26.83
2022-12-26T09:16:49.545Z,26.55
2022-12-26T09:19:20.856Z,35.85
2022-12-26T09:21:51.968Z,29.63
2022-12-26T09:24:29.596Z,22.98
2022-12-26T09:26:57.337Z,36.53
2022-12-26T09:29:24.815Z,40.35
2022-12-26T09:31:52.366Z,50.00
2022-12-26T09:34:19.869Z,49.08
2022-12-26T09:36:47.470Z,53.42
2022-12-26T09:39:22.267Z,58.55
2022-12-26T09:41:55.497Z,48.80
2022-12-26T09:44:24.993Z,53.23
2022-12-26T09:47:00.421Z,60.28
2022-12-26T09:49:31.038Z,61.88
2022-12-26T09:52:00.713Z,55.58
2022-12-26T09:54:41.443Z,60.33
2022-12-26T09:57:15.246Z,56.22
2022-12-26T09:59:45.589Z,57.05
2022-12-26T10:02:18.001Z,64.07
2022-12-26T10:04:45.718Z,69.85
2022-12-26T10:07:16.754Z,60.97
2022-12-26T10:09:53.932Z,71.07
2022-12-26T10:12:30.360Z,72.20
2022-12-26T10:14:58.535Z,66.45
2022-12-26T10:17:29.778Z,68.40
2022-12-26T10:20:02.245Z,64.05
2022-12-26T10:22:38.683Z,67.85
2022-12-26T10:25:14.816Z,66.78
2022-12-26T10:27:44.716Z,67.28
2022-12-26T10:30:16.658Z,64.93
2022-12-26T10:32:45.257Z,73.07
2022-12-26T10:35:23.614Z,74.32
2022-12-26T10:37:54.188Z,63.35
2022-12-26T10:40:25.031Z,70.35
2022-12-26T10:42:55.551Z,67.13
2022-12-26T10:45:28.228Z,67.25
2022-12-26T10:47:57.635Z,62.22
2022-12-26T10:50:28.040Z,61.75
2022-12-26T10:52:56.024Z,54.47
2022-12-26T10:55:31.483Z,59.45
2022-12-26T10:58:10.569Z,57.65
2022-12-26T11:00:47.511Z,55.55
2022-12-26T11:03:17.574Z,56.83
2022-12-26T11:08:43.292Z,53.15
2022-12-26T11:11:14.155Z,49.60
2022-12-26T11:13:47.480Z,50.47
2022-12-26T11:16:24.287Z,67.07
2022-12-26T11:18:54.164Z,63.03
2022-12-26T11:21:23.244Z,57.63
2022-12-26T11:23:52.636Z,56.42
2022-12-26T11:26:22.436Z,54.88
2022-12-26T11:29:05.393Z,51.38
2022-12-26T11:31:33.121Z,53.63
2022-12-26T11:34:09.531Z,57.53
2022-12-26T11:36:40.410Z,56.90
2022-12-26T11:39:22.094Z,54.75
2022-12-26T11:41:49.894Z,49.85
2022-12-26T11:44:21.311Z,48.05
2022-12-26T11:46:50.990Z,45.28
2022-12-26T11:49:19.650Z,47.67
2022-12-26T11:51:49.180Z,50.22
2022-12-26T11:54:23.570Z,48.33
2022-12-26T11:57:00.453Z,49.50
2022-12-26T11:59:29.506Z,41.08
2022-12-26T12:02:13.882Z,49.60
2022-12-26T12:04:43.868Z,32.10
2022-12-26T12:07:18.287Z,38.10
2022-12-26T12:09:49.705Z,38.03
2022-12-26T12:12:19.731Z,41.45
2022-12-26T12:15:01.745Z,44.25
2022-12-26T12:17:32.620Z,43.08
2022-12-26T12:20:16.460Z,38.15
2022-12-26T12:22:54.184Z,38.58
2022-12-26T12:25:27.081Z,46.28
2022-12-26T12:28:01.524Z,48.90
2022-12-26T12:30:38.877Z,37.05
2022-12-26T12:33:22.764Z,45.70
2022-12-26T12:35:58.272Z,48.60
2022-12-26T12:38:27.271Z,42.55
2022-12-26T12:41:02.326Z,36.95
2022-12-26T12:43:32.697Z,40.72
2022-12-26T12:46:10.649Z,37.63
2022-12-26T12:48:47.203Z,32.88
2022-12-26T12:51:18.447Z,43.28
2022-12-26T12:53:58.410Z,30.17
2022-12-26T12:56:29.060Z,38.13
2022-12-26T12:59:01.406Z,29.25
2022-12-26T13:01:34.612Z,28.85
2022-12-26T13:04:03.861Z,39.58
2022-12-26T13:06:35.976Z,34.63
2022-12-26T13:09:05.680Z,29.67
2022-12-26T13:11:34.615Z,32.30
2022-12-26T13:14:06.706Z,29.83
2022-12-26T13:16:43.371Z,30.70
2022-12-26T13:19:17.023Z,33.30
2022-12-26T13:21:46.233Z,32.10
2022-12-26T13:24:26.462Z,38.60
2022-12-26T13:26:59.103Z,29.10
2022-12-26T13:29:37.038Z,29.83
2022-12-26T13:32:14.990Z,36.65
2022-12-26T13:34:44.053Z,31.33
2022-12-26T13:37:57.431Z,25.08
2022-12-26T13:40:26.683Z,38.38
2022-12-26T13:43:14.108Z,31.00
2022-12-26T13:45:59.380Z,35.85
2022-12-26T13:48:45.522Z,31.33
2022-12-26T13:51:27.938Z,29.45
2022-12-26T13:54:00.518Z,29.45
2022-12-26T13:56:47.528Z,27.52
2022-12-26T13:59:19.072Z,30.77
2022-12-26T14:01:55.401Z,28.38
2022-12-26T14:04:34.556Z,32.65
2022-12-26T14:07:12.251Z,33.40
2022-12-26T14:09:58.418Z,32.47
2022-12-26T14:12:34.671Z,33.45
2022-12-26T14:15:06.933Z,41.47
2022-12-26T14:17:38.968Z,50.38
2022-12-26T14:20:13.574Z,41.03
2022-12-26T14:22:45.529Z,45.00
2022-12-26T14:25:19.961Z,48.42
2022-12-26T14:27:52.439Z,47.70
2022-12-26T14:30:25.306Z,53.97
2022-12-26T14:33:01.958Z,46.97
2022-12-26T14:35:32.317Z,54.17
2022-12-26T14:38:05.137Z,58.00
2022-12-26T14:40:36.037Z,53.47
2022-12-26T14:43:14.598Z,52.65
2022-12-26T14:45:44.273Z,58.13
2022-12-26T14:48:31.577Z,51.95
2022-12-26T14:51:28.287Z,45.33
2022-12-26T14:54:18.133Z,44.72
2022-12-26T14:56:47.618Z,36.60
2022-12-26T14:59:27.182Z,49.55
2022-12-26T15:02:02.808Z,40.05
2022-12-26T15:04:57.301Z,39.45
2022-12-26T15:07:42.940Z,45.78
2022-12-26T15:10:19.004Z,43.13
2022-12-26T15:13:07.568Z,46.25
2022-12-26T15:15:39.295Z,42.35
2022-12-26T15:18:25.302Z,49.70
2022-12-26T15:21:03.228Z,39.75
2022-12-26T15:23:46.733Z,44.08
2022-12-26T15:26:25.708Z,42.27
2022-12-26T15:29:20.403Z,45.97
2022-12-26T15:34:29.885Z,45.25
2022-12-26T15:37:01.664Z,41.85
2022-12-26T15:39:34.375Z,39.08
2022-12-26T15:42:07.497Z,39.53
2022-12-26T15:44:40.697Z,29.33
2022-12-26T15:47:27.160Z,33.70
2022-12-26T15:50:05.084Z,27.88
2022-12-26T15:52:41.872Z,31.35
2022-12-26T15:55:16.676Z,30.45
2022-12-26T15:57:50.249Z,26.17
2022-12-26T16:00:19.668Z,26.35
2022-12-26T16:02:49.773Z,25.42
2022-12-26T16:05:44.427Z,23.13
2022-12-26T16:08:26.819Z,26.17
2022-12-26T16:11:09.789Z,25.52
2022-12-26T16:13:49.262Z,22.10
2022-12-26T16:16:24.582Z,19.83
2022-12-26T16:18:52.309Z,25.83
2022-12-26T16:21:38.295Z,29.40
2022-12-26T16:24:08.895Z,24.67
2022-12-26T16:26:40.371Z,22.70
2022-12-26T16:29:11.128Z,24.52
2022-12-26T16:31:39.933Z,27.45
2022-12-26T16:34:07.662Z,23.92
2022-12-26T16:36:36.651Z,25.10
2022-12-26T16:39:15.371Z,25.40
2022-12-26T16:41:58.189Z,23.50
2022-12-26T16:44:31.146Z,27.85
2022-12-26T16:47:01.346Z,30.25
2022-12-26T16:49:29.687Z,28.90
2022-12-26T16:51:57.478Z,24.00
2022-12-26T16:54:29.514Z,22.02
2022-12-26T16:57:02.536Z,28.00
2022-12-26T16:59:35.961Z,30.48
2022-12-26T17:02:03.867Z,27.35
2022-12-26T17:04:32.013Z,26.35
2022-12-26T17:07:01.605Z,35.08
2022-12-26T17:09:31.321Z,33.60
2022-12-26T17:12:01.541Z,36.22
2022-12-26T17:14:30.063Z,31.58
2022-12-26T17:16:59.440Z,35.03
2022-12-26T17:19:31.917Z,27.40
2022-12-26T17:22:18.527Z,28.23
2022-12-26T17:24:47.416Z,29.35
2022-12-26T17:27:19.438Z,27.58
2022-12-26T17:29:51.857Z,26.08
2022-12-26T17:32:28.560Z,27.33
2022-12-26T17:34:56.197Z,25.83
2022-12-26T17:37:25.759Z,25.42
2022-12-26T17:39:59.064Z,29.55
2022-12-26T17:42:32.171Z,26.75
2022-12-26T17:44:59.946Z,29.88
2022-12-26T17:47:29.589Z,25.45
2022-12-26T17:49:58.016Z,27.80
2022-12-26T17:55:25.345Z,24.73
2022-12-26T17:57:53.907Z,28.25
2022-12-26T18:00:22.362Z,30.50
2022-12-26T18:03:06.785Z,27.55
2022-12-26T18:05:34.772Z,32.17
2022-12-26T18:08:10.002Z,26.13
2022-12-26T18:10:38.127Z,31.65
2022-12-26T18:13:07.683Z,31.88
2022-12-26T18:15:35.231Z,30.70
2022-12-26T18:18:04.795Z,32.58
2022-12-26T18:20:32.662Z,44.03
2022-12-26T18:23:00.191Z,27.15
2022-12-26T18:25:28.953Z,34.42
2022-12-26T18:27:56.610Z,37.42
2022-12-26T18:30:25.782Z,30.52
2022-12-26T18:32:55.605Z,40.25
2022-12-26T18:35:24.907Z,37.55
2022-12-26T18:37:53.550Z,27.90
2022-12-26T18:40:27.617Z,40.10
2022-12-26T18:45:22.607Z,38.38
2022-12-26T18:47:50.229Z,28.08
2022-12-26T18:50:18.162Z,35.22
2022-12-26T18:52:53.175Z,26.00
2022-12-26T18:55:21.304Z,32.67
2022-12-26T18:57:48.836Z,34.88
2022-12-26T19:00:17.704Z,37.63
2022-12-26T19:02:45.900Z,42.90
2022-12-26T19:05:16.677Z,34.78
2022-12-26T19:07:45.901Z,32.97
2022-12-26T19:10:15.206Z,29.02
2022-12-26T19:12:42.858Z,38.83
2022-12-26T19:15:10.966Z,39.40
2022-12-26T19:18:04.850Z,37.33
2022-12-26T19:20:43.730Z,34.35
2022-12-26T19:23:15.804Z,36.13
2022-12-26T19:25:44.881Z,31.58
2022-12-26T19:28:12.341Z,35.53
2022-12-26T19:30:39.864Z,32.25
2022-12-26T19:33:08.027Z,40.80
2022-12-26T19:35:35.602Z,37.85
2022-12-26T19:38:06.155Z,32.88
2022-12-26T19:40:33.641Z,24.38
2022-12-26T19:43:03.635Z,32.38
2022-12-26T19:45:31.192Z,26.50
2022-12-26T19:47:58.795Z,38.05
2022-12-26T19:50:36.039Z,27.48
2022-12-26T19:53:03.649Z,36.30
2022-12-26T19:55:31.269Z,31.50
2022-12-26T19:57:58.771Z,30.52
2022-12-26T20:00:29.701Z,34.42
2022-12-26T20:03:00.456Z,33.78
2022-12-26T20:05:43.343Z,38.38
2022-12-26T20:08:21.635Z,31.77
2022-12-26T20:10:49.659Z,38.47
2022-12-26T20:13:18.049Z,28.75
2022-12-26T20:15:47.005Z,29.73
2022-12-26T20:18:24.694Z,34.00
2022-12-26T20:23:45.151Z,34.28
2022-12-26T20:26:16.087Z,30.48
2022-12-26T20:28:44.012Z,35.33
2022-12-26T20:31:19.603Z,33.13
2022-12-26T20:33:48.070Z,32.42
2022-12-26T20:36:16.922Z,31.02
2022-12-26T20:38:45.120Z,27.17
2022-12-26T20:41:12.977Z,32.20
2022-12-26T20:43:40.924Z,29.05
2022-12-26T20:46:09.050Z,31.27
2022-12-26T20:48:38.220Z,34.70
2022-12-26T20:51:07.017Z,37.65
2022-12-26T20:53:36.502Z,32.17
2022-12-26T20:56:07.740Z,31.23
2022-12-26T20:58:36.129Z,28.80
2022-12-26T21:01:07.127Z,28.65
2022-12-26T21:03:38.877Z,32.22
2022-12-26T21:06:08.652Z,27.00
2022-12-26T21:08:36.911Z,26.33
2022-12-26T21:11:12.990Z,27.27
2022-12-26T21:13:40.955Z,27.38
2022-12-26T21:16:10.137Z,20.90
2022-12-26T21:18:37.831Z,26.63
2022-12-26T21:21:06.138Z,24.45
2022-12-26T21:23:35.404Z,24.83
2022-12-26T21:26:03.108Z,23.27
2022-12-26T21:28:30.686Z,23.17
2022-12-26T21:30:58.251Z,21.55
2022-12-26T21:33:26.092Z,22.45
2022-12-26T21:35:54.836Z,22.58
2022-12-26T21:38:23.108Z,22.52
2022-12-26T21:40:52.139Z,23.58
2022-12-26T21:43:19.681Z,26.63
2022-12-26T21:45:47.286Z,21.27
2022-12-26T21:48:14.819Z,23.83
2022-12-26T21:50:44.832Z,23.90
2022-12-26T21:53:12.425Z,24.75
2022-12-26T21:55:38.985Z,22.00
2022-12-26T21:58:07.864Z,23.23
2022-12-26T22:00:36.148Z,21.23
2022-12-26T22:03:21.553Z,28.05
2022-12-26T22:05:49.290Z,26.13
2022-12-26T22:08:16.865Z,26.42
2022-12-26T22:11:03.119Z,22.67
2022-12-26T22:13:38.035Z,20.58
2022-12-26T22:16:10.147Z,24.00
2022-12-26T22:18:39.292Z,21.20
2022-12-26T22:21:08.173Z,20.65
2022-12-26T22:23:36.430Z,28.88
2022-12-26T22:26:04.251Z,25.98
2022-12-26T22:28:33.120Z,28.45
2022-12-26T22:31:01.388Z,21.60
2022-12-26T22:33:29.657Z,21.23
2022-12-26T22:36:03.902Z,25.55
2022-12-26T22:38:32.223Z,23.98
2022-12-26T22:41:00.214Z,24.27
2022-12-26T22:43:28.345Z,25.58
2022-12-26T22:45:58.870Z,24.60
2022-12-26T22:48:26.512Z,18.77
2022-12-26T22:50:54.816Z,27.23
2022-12-26T22:53:23.689Z,16.58
2022-12-26T22:55:52.929Z,26.20
2022-12-26T22:58:20.470Z,22.10
2022-12-26T23:00:48.037Z,18.20
2022-12-26T23:03:17.057Z,25.48
2022-12-26T23:05:45.018Z,23.88
2022-12-26T23:08:16.370Z,19.92
2022-12-26T23:10:44.351Z,24.02
2022-12-26T23:13:12.360Z,20.15
2022-12-26T23:15:46.669Z,28.92
2022-12-26T23:18:36.878Z,20.33
2022-12-26T23:21:26.399Z,22.40
2022-12-26T23:23:54.259Z,22.23
2022-12-26T23:26:21.775Z,22.20
2022-12-26T23:29:06.707Z,29.27
2022-12-26T23:31:37.172Z,20.77
2022-12-26T23:34:04.714Z,24.45
2022-12-26T23:36:33.586Z,22.50
2022-12-26T23:39:01.100Z,20.60
2022-12-26T23:41:28.657Z,19.92
2022-12-26T23:43:56.182Z,19.70
2022-12-26T23:46:23.764Z,20.35
2022-12-26T23:48:51.307Z,20.08
2022-12-26T23:51:18.874Z,21.98
2022-12-26T23:53:47.788Z,18.20
2022-12-26T23:56:15.344Z,22.25
2022-12-26T23:58:42.896Z,17.67
